Aeroporto :
LOGIN :

Iscrizione | Disclaimer

   EN    FR    IT 

 










Sommario :    VFR   VFR Marginale   IFR   IFR Intensivo   IFR Molto Intensivo
Visibilità : 
Base nubi : 
>= 8 km
>= 3000ft
5 / 8 km
1000 / 3000 ft
1500m / 5 km
500 / 1000 ft
800 / 1500m
200 / 500 ft
< 800m
< 200 ft
Simboli :   Temporali  Nebbia  Neve Forte  Precipitazioni Forti  Vento > 20 kt
SIGMETs :   Varie  Temporali  Ghiacco  Turbolenza  Onda orograficha  Ceneri Vulcaniche







- Altitudine del aeroporto : 26 ft
- Codice IATA : GLA
- Carte del aeroporto


EGPF - Glasgow

ULTIMO METAR :
  • 200850Z AUTO 22009KT 4400 BR OVC006 10/09 Q1027

METARs OBSOLETI :
  • 200820Z AUTO 21010KT 4100 BR BKN005/// OVC014/// //////TCU 09/09 Q1026
  • 200750Z AUTO 22008KT 3500 BR BKN007/// OVC010/// //////TCU 09/09 Q1026
  • 200720Z AUTO 22010KT 2800 BR BKN005/// OVC014/// //////TCU 09/09 Q1026
  • 200650Z AUTO 21010KT 4000 BR BKN006/// OVC010/// //////TCU 09/09 Q1026
  • 200620Z AUTO 21009KT 4400 BR OVC006 09/09 Q1025

TAF TAF EGPF
Valido dal 20 a 06 ore il 21 a 06 ore UTC


200455Z 2006/2106 20004KT 9999 SCT012
BECMG 2006/2009 BKN009
TEMPO 2006/2011 6000 -RA BKN004
PROB30
TEMPO 2006/2011 3000 BR
BECMG 2008/2011 22014KT
TEMPO 2011/2103 23017G27KT
BECMG 2015/2018 SCT012
TEMPO 2018/2106 7000 BKN012
PROB40
TEMPO 2100/2106 BKN008
ATIS : +44 141 887 7449
Nessun NOTAM noto per questo aeroporto.



MetMap, La meteo Aeronautica in un colpo d'occhio ! - Copyright ORBIFLY Dicembre 2007 - Disclaimer

ORBIFLY MET'MAP TEAM :

Programmazione e sviluppo : Alexandra Zaïnal
Concezione e sviluppo : Baudouin d'Aumeries
Co-Programmazione e sviluppo : Marc-Olivier Méhu
Supporto tecnico e logistico : Manuel Goepfert
Aiuto per la traduzione : Arnaldo La Scala

Contatto : metmap@orbifly.com




FONTI E CREDITI :

   NOAA